createdAt,value
2018-08-28T00:00:56.131Z,1014.75
2018-08-28T00:01:56.126Z,1014.78
2018-08-28T00:02:56.130Z,1014.74
2018-08-28T00:03:56.112Z,1014.77
2018-08-28T00:04:56.100Z,1014.77
2018-08-28T00:05:56.102Z,1014.78
2018-08-28T00:06:56.103Z,1014.80
2018-08-28T00:07:56.089Z,1014.74
2018-08-28T00:08:56.122Z,1014.75
2018-08-28T00:09:56.082Z,1014.74
2018-08-28T00:10:56.072Z,1014.72
2018-08-28T00:11:56.079Z,1014.73
2018-08-28T00:12:56.065Z,1014.76
2018-08-28T00:13:56.067Z,1014.73
2018-08-28T00:14:56.062Z,1014.74
2018-08-28T00:15:56.071Z,1014.75
2018-08-28T00:16:56.093Z,1014.71
2018-08-28T00:17:56.051Z,1014.78
2018-08-28T00:18:56.047Z,1014.75
2018-08-28T00:19:56.055Z,1014.80
2018-08-28T00:20:56.046Z,1014.80
2018-08-28T00:21:56.025Z,1014.82
2018-08-28T00:22:56.021Z,1014.78
2018-08-28T00:23:56.024Z,1014.80
2018-08-28T00:24:56.022Z,1014.81
2018-08-28T00:25:56.011Z,1014.82
2018-08-28T00:26:56.006Z,1014.81
2018-08-28T00:27:56.002Z,1014.80
2018-08-28T00:28:56.007Z,1014.83
2018-08-28T00:29:55.992Z,1014.85
2018-08-28T00:30:55.992Z,1014.81
2018-08-28T00:31:55.990Z,1014.84
2018-08-28T00:32:55.997Z,1014.85
2018-08-28T00:33:55.984Z,1014.88
2018-08-28T00:34:55.976Z,1014.88
2018-08-28T00:35:55.958Z,1014.91
2018-08-28T00:36:55.977Z,1014.94
2018-08-28T00:37:55.966Z,1014.97
2018-08-28T00:38:55.964Z,1014.97
2018-08-28T00:39:55.957Z,1014.99
2018-08-28T00:40:55.946Z,1015.00
2018-08-28T00:41:55.942Z,1015.01
2018-08-28T00:42:55.940Z,1015.01
2018-08-28T00:43:55.932Z,1015.02
2018-08-28T00:44:55.935Z,1015.08
2018-08-28T00:45:55.931Z,1015.03
2018-08-28T00:46:55.941Z,1015.08
2018-08-28T00:47:55.923Z,1015.06
2018-08-28T00:48:55.907Z,1015.08
2018-08-28T00:49:55.917Z,1015.09
2018-08-28T00:50:55.920Z,1015.11
2018-08-28T00:51:55.905Z,1015.13
2018-08-28T00:52:55.896Z,1015.11
2018-08-28T00:53:55.887Z,1015.12
2018-08-28T00:54:55.884Z,1015.12
2018-08-28T00:55:55.883Z,1015.11
2018-08-28T00:56:55.878Z,1015.16
2018-08-28T00:57:55.884Z,1015.13
2018-08-28T00:58:55.880Z,1015.16
2018-08-28T00:59:55.867Z,1015.13
2018-08-28T01:00:55.862Z,1015.17
2018-08-28T01:01:55.865Z,1015.16
2018-08-28T01:02:55.860Z,1015.19
2018-08-28T01:03:55.866Z,1015.17
2018-08-28T01:04:55.847Z,1015.16
2018-08-28T01:05:55.838Z,1015.19
2018-08-28T01:06:55.844Z,1015.21
2018-08-28T01:07:55.826Z,1015.19
2018-08-28T01:08:55.831Z,1015.21
2018-08-28T01:09:55.829Z,1015.19
2018-08-28T01:10:55.821Z,1015.20
2018-08-28T01:11:55.820Z,1015.24
2018-08-28T01:12:55.810Z,1015.22
2018-08-28T01:13:55.806Z,1015.25
2018-08-28T01:14:55.810Z,1015.26
2018-08-28T01:15:55.797Z,1015.29
2018-08-28T01:16:55.791Z,1015.25
2018-08-28T01:17:55.806Z,1015.28
2018-08-28T01:18:55.784Z,1015.26
2018-08-28T01:19:55.776Z,1015.27
2018-08-28T01:20:55.767Z,1015.28
2018-08-28T01:21:55.767Z,1015.31
2018-08-28T01:22:55.777Z,1015.31
2018-08-28T01:23:55.778Z,1015.30
2018-08-28T01:24:55.756Z,1015.31
2018-08-28T01:25:55.752Z,1015.30
2018-08-28T01:26:55.748Z,1015.30
2018-08-28T01:27:55.733Z,1015.29
2018-08-28T01:28:55.754Z,1015.27
2018-08-28T01:29:55.728Z,1015.25
2018-08-28T01:30:55.732Z,1015.28
2018-08-28T01:31:55.743Z,1015.32
2018-08-28T01:32:55.722Z,1015.29
2018-08-28T01:33:55.731Z,1015.30
2018-08-28T01:34:55.719Z,1015.30
2018-08-28T01:35:55.707Z,1015.27
2018-08-28T01:36:55.706Z,1015.31
2018-08-28T01:37:55.701Z,1015.30
2018-08-28T01:38:55.692Z,1015.30
2018-08-28T01:39:55.689Z,1015.28
2018-08-28T01:40:55.687Z,1015.30
2018-08-28T01:41:55.683Z,1015.29
2018-08-28T01:42:55.677Z,1015.25
2018-08-28T01:43:55.679Z,1015.27
2018-08-28T01:44:55.669Z,1015.25
2018-08-28T01:45:55.664Z,1015.23
2018-08-28T01:46:55.676Z,1015.25
2018-08-28T01:47:55.659Z,1015.22
2018-08-28T01:48:55.657Z,1015.21
2018-08-28T01:49:55.671Z,1015.21
2018-08-28T01:50:55.648Z,1015.23
2018-08-28T01:51:55.642Z,1015.22
2018-08-28T01:52:55.627Z,1015.23
2018-08-28T01:53:55.639Z,1015.23
2018-08-28T01:54:55.639Z,1015.20
2018-08-28T01:55:55.627Z,1015.22
2018-08-28T01:56:55.632Z,1015.19
2018-08-28T01:57:55.608Z,1015.19
2018-08-28T01:58:55.613Z,1015.22
2018-08-28T01:59:55.606Z,1015.20
2018-08-28T02:00:55.602Z,1015.20
2018-08-28T02:01:55.600Z,1015.20
2018-08-28T02:02:55.608Z,1015.22
2018-08-28T02:03:55.600Z,1015.22
2018-08-28T02:04:55.579Z,1015.18
2018-08-28T02:05:55.578Z,1015.20
2018-08-28T02:06:55.587Z,1015.20
2018-08-28T02:07:55.569Z,1015.20
2018-08-28T02:08:55.562Z,1015.21
2018-08-28T02:09:55.572Z,1015.23
2018-08-28T02:10:55.547Z,1015.23
2018-08-28T02:11:55.572Z,1015.26
2018-08-28T02:12:55.556Z,1015.23
2018-08-28T02:13:55.548Z,1015.26
2018-08-28T02:14:55.542Z,1015.21
2018-08-28T02:15:55.533Z,1015.28
2018-08-28T02:16:55.538Z,1015.24
2018-08-28T02:17:55.522Z,1015.25
2018-08-28T02:18:55.519Z,1015.28
2018-08-28T02:19:55.513Z,1015.27
2018-08-28T02:20:55.510Z,1015.25
2018-08-28T02:21:55.514Z,1015.29
2018-08-28T02:22:55.509Z,1015.26
2018-08-28T02:23:55.502Z,1015.25
2018-08-28T02:24:55.493Z,1015.26
2018-08-28T02:25:55.498Z,1015.31
2018-08-28T02:26:55.488Z,1015.29
2018-08-28T02:27:55.479Z,1015.29
2018-08-28T02:28:55.479Z,1015.26
2018-08-28T02:29:55.472Z,1015.28
2018-08-28T02:30:55.469Z,1015.31
2018-08-28T02:31:55.465Z,1015.27
2018-08-28T02:32:55.468Z,1015.29
2018-08-28T02:33:55.459Z,1015.30
2018-08-28T02:34:55.453Z,1015.27
2018-08-28T02:35:55.448Z,1015.29
2018-08-28T02:36:55.448Z,1015.25
2018-08-28T02:37:55.440Z,1015.27
2018-08-28T02:38:55.447Z,1015.24
2018-08-28T02:39:55.471Z,1015.27
2018-08-28T02:40:55.430Z,1015.29
2018-08-28T02:41:55.418Z,1015.31
2018-08-28T02:42:55.419Z,1015.27
2018-08-28T02:43:55.408Z,1015.30
2018-08-28T02:44:55.403Z,1015.28
2018-08-28T02:45:55.399Z,1015.28
2018-08-28T02:46:55.402Z,1015.27
2018-08-28T02:47:55.395Z,1015.27
2018-08-28T02:48:55.403Z,1015.28
2018-08-28T02:49:55.392Z,1015.27
2018-08-28T02:50:55.381Z,1015.28
2018-08-28T02:51:55.368Z,1015.29
2018-08-28T02:52:55.363Z,1015.27
2018-08-28T02:53:55.365Z,1015.27
2018-08-28T02:54:55.367Z,1015.28
2018-08-28T02:55:55.359Z,1015.27
2018-08-28T02:56:55.345Z,1015.31
2018-08-28T02:57:55.360Z,1015.26
2018-08-28T02:58:55.348Z,1015.31
2018-08-28T02:59:55.340Z,1015.32
2018-08-28T03:00:55.335Z,1015.30
2018-08-28T03:01:55.332Z,1015.32
2018-08-28T03:02:55.369Z,1015.32
2018-08-28T03:03:55.324Z,1015.33
2018-08-28T03:04:55.326Z,1015.32
2018-08-28T03:05:55.320Z,1015.31
2018-08-28T03:06:55.308Z,1015.27
2018-08-28T03:07:55.308Z,1015.30
2018-08-28T03:08:55.295Z,1015.30
2018-08-28T03:09:55.290Z,1015.33
2018-08-28T03:10:55.295Z,1015.29
2018-08-28T03:11:55.274Z,1015.30
2018-08-28T03:12:55.283Z,1015.28
2018-08-28T03:13:55.278Z,1015.29
2018-08-28T03:14:55.280Z,1015.27
2018-08-28T03:15:55.281Z,1015.27
2018-08-28T03:16:55.265Z,1015.30
2018-08-28T03:17:55.257Z,1015.30
2018-08-28T03:18:55.257Z,1015.31
2018-08-28T03:19:55.249Z,1015.30
2018-08-28T03:20:55.251Z,1015.31
2018-08-28T03:21:55.239Z,1015.31
2018-08-28T03:22:55.237Z,1015.37
2018-08-28T03:23:55.233Z,1015.37
2018-08-28T03:24:55.238Z,1015.33
2018-08-28T03:25:55.223Z,1015.33
2018-08-28T03:26:55.230Z,1015.34
2018-08-28T03:27:55.228Z,1015.35
2018-08-28T03:28:55.263Z,1015.33
2018-08-28T03:29:55.217Z,1015.34
2018-08-28T03:30:55.195Z,1015.37
2018-08-28T03:31:55.190Z,1015.32
2018-08-28T03:32:55.207Z,1015.36
2018-08-28T03:33:55.193Z,1015.39
2018-08-28T03:34:55.182Z,1015.39
2018-08-28T03:35:55.185Z,1015.43
2018-08-28T03:36:55.177Z,1015.44
2018-08-28T03:37:55.169Z,1015.42
2018-08-28T03:38:55.179Z,1015.44
2018-08-28T03:39:55.170Z,1015.46
2018-08-28T03:40:55.159Z,1015.48
2018-08-28T03:41:55.160Z,1015.46
2018-08-28T03:42:55.151Z,1015.48
2018-08-28T03:43:55.148Z,1015.50
2018-08-28T03:44:55.140Z,1015.45
2018-08-28T03:45:55.144Z,1015.49
2018-08-28T03:46:55.138Z,1015.48
2018-08-28T03:47:55.133Z,1015.48
2018-08-28T03:48:55.123Z,1015.47
2018-08-28T03:49:55.124Z,1015.49
2018-08-28T03:50:55.123Z,1015.51
2018-08-28T03:51:55.114Z,1015.49
2018-08-28T03:52:55.113Z,1015.53
2018-08-28T03:53:55.110Z,1015.51
2018-08-28T03:54:55.110Z,1015.56
2018-08-28T03:55:55.089Z,1015.57
2018-08-28T03:56:55.128Z,1015.58
2018-08-28T03:57:55.081Z,1015.61
2018-08-28T03:58:55.079Z,1015.58
2018-08-28T03:59:55.090Z,1015.62
2018-08-28T04:00:55.074Z,1015.60
2018-08-28T04:01:55.075Z,1015.59
2018-08-28T04:02:55.055Z,1015.59
2018-08-28T04:03:55.058Z,1015.58
2018-08-28T04:04:55.055Z,1015.56
2018-08-28T04:05:55.051Z,1015.59
2018-08-28T04:06:55.045Z,1015.59
2018-08-28T04:07:55.041Z,1015.56
2018-08-28T04:08:55.045Z,1015.54
2018-08-28T04:09:55.029Z,1015.58
2018-08-28T04:10:55.025Z,1015.60
2018-08-28T04:11:55.026Z,1015.55
2018-08-28T04:12:55.019Z,1015.57
2018-08-28T04:13:55.024Z,1015.55
2018-08-28T04:14:55.006Z,1015.55
2018-08-28T04:15:54.996Z,1015.58
2018-08-28T04:16:55.032Z,1015.58
2018-08-28T04:17:55.000Z,1015.57
2018-08-28T04:18:54.991Z,1015.55
2018-08-28T04:19:54.986Z,1015.56
2018-08-28T04:20:54.992Z,1015.58
2018-08-28T04:21:54.984Z,1015.57
2018-08-28T04:22:54.975Z,1015.60
2018-08-28T04:23:54.981Z,1015.56
2018-08-28T04:24:54.964Z,1015.54
2018-08-28T04:25:54.956Z,1015.56
2018-08-28T04:26:54.957Z,1015.58
2018-08-28T04:27:54.956Z,1015.56
2018-08-28T04:28:54.945Z,1015.59
2018-08-28T04:29:54.946Z,1015.57
2018-08-28T04:30:54.955Z,1015.61
2018-08-28T04:31:54.937Z,1015.59
2018-08-28T04:32:54.920Z,1015.58
2018-08-28T04:33:54.930Z,1015.61
2018-08-28T04:34:54.921Z,1015.61
2018-08-28T04:35:54.914Z,1015.63
2018-08-28T04:36:54.915Z,1015.65
2018-08-28T04:37:54.912Z,1015.65
2018-08-28T04:38:54.910Z,1015.71
2018-08-28T04:39:54.897Z,1015.67
2018-08-28T04:40:54.894Z,1015.68
2018-08-28T04:41:54.992Z,1015.72
2018-08-28T04:42:54.886Z,1015.73
2018-08-28T04:43:54.875Z,1015.72
2018-08-28T04:44:54.877Z,1015.72
2018-08-28T04:45:54.876Z,1015.74
2018-08-28T04:46:54.868Z,1015.72
2018-08-28T04:47:54.866Z,1015.74
2018-08-28T04:48:54.902Z,1015.71
2018-08-28T04:49:54.853Z,1015.72
2018-08-28T04:50:54.846Z,1015.75
2018-08-28T04:51:54.849Z,1015.76
2018-08-28T04:52:54.846Z,1015.75
2018-08-28T04:53:54.835Z,1015.78
2018-08-28T04:54:54.864Z,1015.82
2018-08-28T04:55:54.823Z,1015.83
2018-08-28T04:56:54.823Z,1015.84
2018-08-28T04:57:54.821Z,1015.85
2018-08-28T04:58:54.821Z,1015.85
2018-08-28T04:59:54.821Z,1015.85
2018-08-28T05:00:54.816Z,1015.89
2018-08-28T05:01:54.805Z,1015.87
2018-08-28T05:02:54.787Z,1015.89
2018-08-28T05:03:54.791Z,1015.88
2018-08-28T05:04:54.791Z,1015.88
2018-08-28T05:05:54.780Z,1015.89
2018-08-28T05:06:54.782Z,1015.88
2018-08-28T05:07:54.775Z,1015.91
2018-08-28T05:08:54.763Z,1015.89
2018-08-28T05:09:54.758Z,1015.86
2018-08-28T05:10:54.761Z,1015.85
2018-08-28T05:11:54.822Z,1015.84
2018-08-28T05:12:54.770Z,1015.89
2018-08-28T05:13:54.746Z,1015.84
2018-08-28T05:14:54.741Z,1015.90
2018-08-28T05:15:54.797Z,1015.92
2018-08-28T05:16:54.736Z,1015.93
2018-08-28T05:17:54.733Z,1015.93
2018-08-28T05:18:54.723Z,1015.92
2018-08-28T05:19:54.723Z,1015.91
2018-08-28T05:20:54.711Z,1015.97
2018-08-28T05:21:54.715Z,1015.93
2018-08-28T05:22:54.704Z,1015.96
2018-08-28T05:23:54.701Z,1015.97
2018-08-28T05:24:54.688Z,1015.98
2018-08-28T05:25:54.700Z,1015.98
2018-08-28T05:26:54.687Z,1015.98
2018-08-28T05:27:54.693Z,1015.99
2018-08-28T05:28:54.675Z,1015.96
2018-08-28T05:29:54.672Z,1015.97
2018-08-28T05:30:54.679Z,1016.00
2018-08-28T05:31:54.666Z,1016.01
2018-08-28T05:32:54.669Z,1016.02
2018-08-28T05:33:54.657Z,1016.03
2018-08-28T05:34:54.657Z,1016.03
2018-08-28T05:35:54.646Z,1016.06
2018-08-28T05:36:54.643Z,1016.03
2018-08-28T05:37:54.647Z,1016.06
2018-08-28T05:38:54.642Z,1016.02
2018-08-28T05:39:54.626Z,1016.07
2018-08-28T05:40:54.626Z,1016.07
2018-08-28T05:41:54.632Z,1016.08
2018-08-28T05:42:54.623Z,1016.09
2018-08-28T05:43:54.613Z,1016.07
2018-08-28T05:44:54.603Z,1016.07
2018-08-28T05:45:54.611Z,1016.05
2018-08-28T05:46:54.597Z,1016.09
2018-08-28T05:47:54.598Z,1016.06
2018-08-28T05:48:54.607Z,1016.09
2018-08-28T05:49:54.579Z,1016.10
2018-08-28T05:50:54.573Z,1016.09
2018-08-28T05:51:54.596Z,1016.13
2018-08-28T05:52:54.579Z,1016.12
2018-08-28T05:53:54.568Z,1016.16
2018-08-28T05:54:54.610Z,1016.16
2018-08-28T05:55:54.656Z,1016.13
2018-08-28T05:56:54.558Z,1016.14
2018-08-28T05:57:54.554Z,1016.13
2018-08-28T05:58:54.549Z,1016.14
2018-08-28T05:59:54.543Z,1016.16
2018-08-28T06:00:54.547Z,1016.18
2018-08-28T06:01:54.522Z,1016.19
2018-08-28T06:02:54.538Z,1016.25
2018-08-28T06:03:54.532Z,1016.22
2018-08-28T06:04:54.531Z,1016.23
2018-08-28T06:05:54.505Z,1016.24
2018-08-28T06:06:54.523Z,1016.23
2018-08-28T06:07:54.516Z,1016.22
2018-08-28T06:08:54.551Z,1016.25
2018-08-28T06:09:54.494Z,1016.28
2018-08-28T06:10:54.498Z,1016.29
2018-08-28T06:11:54.489Z,1016.32
2018-08-28T06:12:54.493Z,1016.31
2018-08-28T06:13:54.485Z,1016.33
2018-08-28T06:14:54.505Z,1016.31
2018-08-28T06:15:54.468Z,1016.33
2018-08-28T06:16:54.472Z,1016.34
2018-08-28T06:17:54.463Z,1016.36
2018-08-28T06:18:54.458Z,1016.35
2018-08-28T06:19:54.453Z,1016.37
2018-08-28T06:20:54.445Z,1016.37
2018-08-28T06:21:54.443Z,1016.39
2018-08-28T06:22:54.496Z,1016.37
2018-08-28T06:23:54.434Z,1016.38
2018-08-28T06:24:54.438Z,1016.40
2018-08-28T06:25:54.423Z,1016.37
2018-08-28T06:26:54.412Z,1016.34
2018-08-28T06:27:54.421Z,1016.39
2018-08-28T06:28:54.408Z,1016.38
2018-08-28T06:29:54.414Z,1016.42
2018-08-28T06:30:54.394Z,1016.41
2018-08-28T06:31:54.397Z,1016.44
2018-08-28T06:32:54.397Z,1016.40
2018-08-28T06:33:54.415Z,1016.46
2018-08-28T06:34:54.385Z,1016.46
2018-08-28T06:35:54.382Z,1016.42
2018-08-28T06:36:54.401Z,1016.44
2018-08-28T06:37:54.373Z,1016.48
2018-08-28T06:38:54.372Z,1016.46
2018-08-28T06:39:54.363Z,1016.46
2018-08-28T06:40:54.363Z,1016.47
2018-08-28T06:41:54.366Z,1016.47
2018-08-28T06:42:54.356Z,1016.48
2018-08-28T06:43:54.368Z,1016.45
2018-08-28T06:44:54.342Z,1016.49
2018-08-28T06:45:54.339Z,1016.50
2018-08-28T06:46:54.336Z,1016.50
2018-08-28T06:47:54.335Z,1016.50
2018-08-28T06:48:54.326Z,1016.50
2018-08-28T06:49:54.323Z,1016.53
2018-08-28T06:50:54.309Z,1016.51
2018-08-28T06:51:54.307Z,1016.54
2018-08-28T06:52:54.312Z,1016.53
2018-08-28T06:53:54.303Z,1016.55
2018-08-28T06:54:54.300Z,1016.54
2018-08-28T06:55:54.305Z,1016.57
2018-08-28T06:56:54.367Z,1016.52
2018-08-28T06:57:54.280Z,1016.51
2018-08-28T06:58:54.281Z,1016.53
2018-08-28T06:59:54.275Z,1016.53
2018-08-28T07:00:54.274Z,1016.54
2018-08-28T07:01:54.271Z,1016.56
2018-08-28T07:02:54.259Z,1016.53
2018-08-28T07:03:54.309Z,1016.53
2018-08-28T07:04:54.255Z,1016.52
2018-08-28T07:05:54.255Z,1016.55
2018-08-28T07:06:54.260Z,1016.54
2018-08-28T07:07:54.257Z,1016.54
2018-08-28T07:08:54.235Z,1016.57
2018-08-28T07:09:54.243Z,1016.56
2018-08-28T07:10:54.222Z,1016.56
2018-08-28T07:11:54.228Z,1016.61
2018-08-28T07:12:54.224Z,1016.57
2018-08-28T07:13:54.215Z,1016.60
2018-08-28T07:14:54.210Z,1016.62
2018-08-28T07:15:54.207Z,1016.62
2018-08-28T07:16:54.213Z,1016.60
2018-08-28T07:17:54.193Z,1016.61
2018-08-28T07:18:54.344Z,1016.61
2018-08-28T07:19:54.190Z,1016.60
2018-08-28T07:20:54.194Z,1016.61
2018-08-28T07:21:54.180Z,1016.63
2018-08-28T07:22:54.199Z,1016.61
2018-08-28T07:23:54.171Z,1016.61
2018-08-28T07:24:54.170Z,1016.64
2018-08-28T07:25:54.175Z,1016.65
2018-08-28T07:26:54.187Z,1016.64
2018-08-28T07:27:54.154Z,1016.63
2018-08-28T07:28:54.166Z,1016.63
2018-08-28T07:29:54.144Z,1016.63
2018-08-28T07:30:54.144Z,1016.62
2018-08-28T07:31:54.182Z,1016.62
2018-08-28T07:32:54.135Z,1016.65
2018-08-28T07:33:54.143Z,1016.64
2018-08-28T07:34:54.139Z,1016.65
2018-08-28T07:35:54.133Z,1016.62
2018-08-28T07:36:54.129Z,1016.62
2018-08-28T07:37:54.113Z,1016.62
2018-08-28T07:38:54.115Z,1016.62
2018-08-28T07:39:54.099Z,1016.69
2018-08-28T07:40:54.106Z,1016.68
2018-08-28T07:41:54.101Z,1016.68
2018-08-28T07:42:54.129Z,1016.66
2018-08-28T07:43:54.094Z,1016.63
2018-08-28T07:44:54.085Z,1016.66
2018-08-28T07:45:54.079Z,1016.65
2018-08-28T07:46:54.075Z,1016.67
2018-08-28T07:47:54.099Z,1016.66
2018-08-28T07:48:54.068Z,1016.66
2018-08-28T07:49:54.065Z,1016.63
2018-08-28T07:50:54.060Z,1016.64
2018-08-28T07:51:54.060Z,1016.67
2018-08-28T07:52:54.050Z,1016.66
2018-08-28T07:53:54.100Z,1016.65
2018-08-28T07:54:54.040Z,1016.64
2018-08-28T07:55:54.046Z,1016.64
2018-08-28T07:56:54.031Z,1016.63
2018-08-28T07:57:54.040Z,1016.63
2018-08-28T07:58:54.032Z,1016.67
2018-08-28T07:59:54.030Z,1016.68
2018-08-28T08:00:54.017Z,1016.73
2018-08-28T08:01:54.028Z,1016.70
2018-08-28T08:02:54.011Z,1016.76
2018-08-28T08:03:54.004Z,1016.75
2018-08-28T08:04:53.999Z,1016.77
2018-08-28T08:05:54.003Z,1016.77
2018-08-28T08:06:53.995Z,1016.78
2018-08-28T08:07:53.989Z,1016.81
2018-08-28T08:08:53.981Z,1016.81
2018-08-28T08:09:53.976Z,1016.86
2018-08-28T08:10:53.978Z,1016.84
2018-08-28T08:11:53.983Z,1016.83
2018-08-28T08:12:53.990Z,1016.82
2018-08-28T08:13:53.965Z,1016.84
2018-08-28T08:14:53.959Z,1016.86
2018-08-28T08:15:53.949Z,1016.86
2018-08-28T08:16:53.954Z,1016.85
2018-08-28T08:17:53.952Z,1016.85
2018-08-28T08:18:53.947Z,1016.85
2018-08-28T08:19:53.945Z,1016.82
2018-08-28T08:20:53.926Z,1016.83
2018-08-28T08:21:53.950Z,1016.79
2018-08-28T08:22:53.924Z,1016.82
2018-08-28T08:23:53.921Z,1016.83
2018-08-28T08:24:53.915Z,1016.81
2018-08-28T08:25:53.917Z,1016.80
2018-08-28T08:26:53.911Z,1016.80
2018-08-28T08:27:53.974Z,1016.81
2018-08-28T08:28:53.902Z,1016.84
2018-08-28T08:29:53.894Z,1016.84
2018-08-28T08:30:53.897Z,1016.84
2018-08-28T08:31:53.889Z,1016.82
2018-08-28T08:32:53.886Z,1016.84
2018-08-28T08:33:53.904Z,1016.84
2018-08-28T08:34:53.886Z,1016.84
2018-08-28T08:35:53.872Z,1016.80
2018-08-28T08:36:53.885Z,1016.82
2018-08-28T08:37:53.871Z,1016.84
2018-08-28T08:38:53.872Z,1016.86
2018-08-28T08:39:53.856Z,1016.81
2018-08-28T08:40:53.854Z,1016.83
2018-08-28T08:41:53.914Z,1016.79
2018-08-28T08:42:53.852Z,1016.81
2018-08-28T08:43:53.841Z,1016.79
2018-08-28T08:44:53.841Z,1016.82
2018-08-28T08:45:53.837Z,1016.79
2018-08-28T08:46:53.846Z,1016.78
2018-08-28T08:47:53.826Z,1016.79
2018-08-28T08:48:53.821Z,1016.77
2018-08-28T08:49:53.817Z,1016.77
2018-08-28T08:50:53.827Z,1016.78
2018-08-28T08:51:53.813Z,1016.76
2018-08-28T08:52:53.801Z,1016.77
2018-08-28T08:53:53.802Z,1016.79
2018-08-28T08:54:53.830Z,1016.72
2018-08-28T08:55:53.801Z,1016.74
2018-08-28T08:56:53.785Z,1016.75
2018-08-28T08:57:53.795Z,1016.73
2018-08-28T08:58:53.781Z,1016.77
2018-08-28T08:59:53.780Z,1016.77
2018-08-28T09:00:53.777Z,1016.84
2018-08-28T09:01:53.771Z,1016.80
2018-08-28T09:02:53.776Z,1016.80
2018-08-28T09:03:53.760Z,1016.82
2018-08-28T09:04:53.752Z,1016.79
2018-08-28T09:05:53.805Z,1016.78
2018-08-28T09:06:53.746Z,1016.78
2018-08-28T09:07:53.748Z,1016.78
2018-08-28T09:08:53.755Z,1016.83
2018-08-28T09:09:53.744Z,1016.76
2018-08-28T09:10:53.751Z,1016.78
2018-08-28T09:11:53.732Z,1016.78
2018-08-28T09:12:53.713Z,1016.74
2018-08-28T09:13:53.742Z,1016.78
2018-08-28T09:14:53.719Z,1016.75
2018-08-28T09:15:53.706Z,1016.74
2018-08-28T09:16:53.703Z,1016.69
2018-08-28T09:17:53.701Z,1016.69
2018-08-28T09:18:53.700Z,1016.67
2018-08-28T09:19:53.702Z,1016.64
2018-08-28T09:20:53.692Z,1016.70
2018-08-28T09:21:53.686Z,1016.67
2018-08-28T09:22:53.685Z,1016.63
2018-08-28T09:23:53.691Z,1016.58
2018-08-28T09:24:53.680Z,1016.51
2018-08-28T09:25:53.685Z,1016.55
2018-08-28T09:26:53.664Z,1016.54
2018-08-28T09:27:53.662Z,1016.49
2018-08-28T09:28:53.665Z,1016.51
2018-08-28T09:29:53.661Z,1016.51
2018-08-28T09:30:53.652Z,1016.51
2018-08-28T09:31:53.646Z,1016.48
2018-08-28T09:32:53.645Z,1016.49
2018-08-28T09:33:53.636Z,1016.46
2018-08-28T09:34:53.632Z,1016.48
2018-08-28T09:35:53.625Z,1016.48
2018-08-28T09:36:53.653Z,1016.47
2018-08-28T09:37:53.629Z,1016.46
2018-08-28T09:38:53.714Z,1016.43
2018-08-28T09:39:53.602Z,1016.43
2018-08-28T09:40:53.632Z,1016.44
2018-08-28T09:41:53.600Z,1016.46
2018-08-28T09:42:53.602Z,1016.46
2018-08-28T09:43:53.627Z,1016.46
2018-08-28T09:44:53.604Z,1016.46
2018-08-28T09:45:53.588Z,1016.46
2018-08-28T09:46:53.581Z,1016.44
2018-08-28T09:47:53.650Z,1016.45
2018-08-28T09:48:53.576Z,1016.39
2018-08-28T09:49:53.601Z,1016.37
2018-08-28T09:50:53.600Z,1016.34
2018-08-28T09:51:53.563Z,1016.39
2018-08-28T09:52:53.554Z,1016.35
2018-08-28T09:53:53.573Z,1016.34
2018-08-28T09:54:53.553Z,1016.35
2018-08-28T09:55:53.558Z,1016.36
2018-08-28T09:56:53.548Z,1016.34
2018-08-28T09:57:53.543Z,1016.35
2018-08-28T09:58:53.531Z,1016.41
2018-08-28T09:59:53.544Z,1016.39
2018-08-28T10:00:53.532Z,1016.40
2018-08-28T10:01:53.535Z,1016.40
2018-08-28T10:02:53.517Z,1016.38
2018-08-28T10:03:53.521Z,1016.37
2018-08-28T10:04:53.533Z,1016.37
2018-08-28T10:05:53.508Z,1016.33
2018-08-28T10:06:53.510Z,1016.33
2018-08-28T10:07:53.564Z,1016.32
2018-08-28T10:08:53.503Z,1016.33
2018-08-28T10:09:53.494Z,1016.33
2018-08-28T10:10:53.517Z,1016.32
2018-08-28T10:11:53.497Z,1016.32
2018-08-28T10:12:53.489Z,1016.29
2018-08-28T10:13:53.477Z,1016.25
2018-08-28T10:14:53.493Z,1016.28
2018-08-28T10:15:53.462Z,1016.27
2018-08-28T10:16:53.463Z,1016.27
2018-08-28T10:17:53.458Z,1016.26
2018-08-28T10:18:53.457Z,1016.23
2018-08-28T10:19:53.453Z,1016.26
2018-08-28T10:20:53.444Z,1016.31
2018-08-28T10:21:53.443Z,1016.26
2018-08-28T10:22:53.487Z,1016.27
2018-08-28T10:23:53.441Z,1016.26
2018-08-28T10:24:53.432Z,1016.25
2018-08-28T10:25:53.422Z,1016.26
2018-08-28T10:26:53.418Z,1016.27
2018-08-28T10:27:53.432Z,1016.22
2018-08-28T10:28:53.409Z,1016.20
2018-08-28T10:29:53.474Z,1016.21
2018-08-28T10:30:53.414Z,1016.16
2018-08-28T10:31:53.419Z,1016.18
2018-08-28T10:32:53.398Z,1016.15
2018-08-28T10:33:53.397Z,1016.13
2018-08-28T10:34:53.384Z,1016.11
2018-08-28T10:35:53.377Z,1016.09
2018-08-28T10:36:53.377Z,1016.10
2018-08-28T10:37:53.373Z,1016.14
2018-08-28T10:38:53.390Z,1016.14
2018-08-28T10:39:53.359Z,1016.15
2018-08-28T10:40:53.370Z,1016.12
2018-08-28T10:41:53.379Z,1016.09
2018-08-28T10:42:53.359Z,1016.09
2018-08-28T10:43:53.353Z,1016.09
2018-08-28T10:44:53.347Z,1016.12
2018-08-28T10:45:53.389Z,1016.12
2018-08-28T10:46:53.497Z,1016.12
2018-08-28T10:47:53.357Z,1016.14
2018-08-28T10:48:53.347Z,1016.07
2018-08-28T10:49:53.333Z,1016.10
2018-08-28T10:50:53.323Z,1016.12
2018-08-28T10:51:53.322Z,1016.08
2018-08-28T10:52:53.379Z,1016.09
2018-08-28T10:53:53.308Z,1016.12
2018-08-28T10:54:53.304Z,1016.10
2018-08-28T10:55:53.299Z,1016.07
2018-08-28T10:56:53.304Z,1016.08
2018-08-28T10:57:53.308Z,1016.07
2018-08-28T10:58:53.293Z,1016.04
2018-08-28T10:59:53.287Z,1016.06
2018-08-28T11:00:53.299Z,1016.03
2018-08-28T11:01:53.284Z,1016.02
2018-08-28T11:02:53.269Z,1016.06
2018-08-28T11:03:53.271Z,1016.08
2018-08-28T11:04:53.283Z,1016.02
2018-08-28T11:05:53.273Z,1016.07
2018-08-28T11:06:53.263Z,1016.05
2018-08-28T11:07:53.256Z,1016.07
2018-08-28T11:08:53.260Z,1016.05
2018-08-28T11:09:53.242Z,1016.08
2018-08-28T11:10:53.240Z,1016.07
2018-08-28T11:11:53.244Z,1016.00
2018-08-28T11:12:53.227Z,1016.03
2018-08-28T11:13:53.234Z,1015.99
2018-08-28T11:14:53.223Z,1015.98
2018-08-28T11:15:53.242Z,1015.99
2018-08-28T11:16:53.209Z,1015.97
2018-08-28T11:17:53.208Z,1015.91
2018-08-28T11:18:53.213Z,1015.91
2018-08-28T11:19:53.213Z,1015.93
2018-08-28T11:20:53.209Z,1015.93
2018-08-28T11:21:53.193Z,1015.93
2018-08-28T11:22:53.265Z,1015.95
2018-08-28T11:23:53.215Z,1015.95
2018-08-28T11:24:53.179Z,1015.96
2018-08-28T11:25:53.173Z,1015.91
2018-08-28T11:26:53.173Z,1016.00
2018-08-28T11:27:53.161Z,1016.02
2018-08-28T11:28:53.160Z,1015.99
2018-08-28T11:29:53.170Z,1015.97
2018-08-28T11:30:53.163Z,1015.96
2018-08-28T11:31:53.148Z,1015.94
2018-08-28T11:32:53.145Z,1015.96
2018-08-28T11:33:53.160Z,1015.99
2018-08-28T11:34:53.159Z,1016.02
2018-08-28T11:35:53.139Z,1016.03
2018-08-28T11:36:53.139Z,1016.03
2018-08-28T11:37:53.144Z,1015.97
2018-08-28T11:38:53.131Z,1015.97
2018-08-28T11:39:53.134Z,1015.93
2018-08-28T11:40:53.125Z,1015.94
2018-08-28T11:41:53.125Z,1015.94
2018-08-28T11:42:53.110Z,1015.99
2018-08-28T11:43:53.104Z,1015.95
2018-08-28T11:44:53.114Z,1015.96
2018-08-28T11:45:53.120Z,1015.94
2018-08-28T11:46:53.118Z,1015.93
2018-08-28T11:47:53.100Z,1015.87
2018-08-28T11:48:53.109Z,1015.96
2018-08-28T11:49:53.124Z,1015.89
2018-08-28T11:50:53.073Z,1015.86
2018-08-28T11:51:53.088Z,1015.86
2018-08-28T11:52:53.073Z,1015.87
2018-08-28T11:53:53.054Z,1015.82
2018-08-28T11:54:53.063Z,1015.83
2018-08-28T11:55:53.072Z,1015.81
2018-08-28T11:56:53.045Z,1015.83
2018-08-28T11:57:53.045Z,1015.88
2018-08-28T11:58:53.051Z,1015.84
2018-08-28T11:59:53.043Z,1015.85
2018-08-28T12:00:53.034Z,1015.81
2018-08-28T12:01:53.073Z,1015.81
2018-08-28T12:02:53.025Z,1015.82
2018-08-28T12:03:53.029Z,1015.79
2018-08-28T12:04:53.069Z,1015.77
2018-08-28T12:05:53.019Z,1015.79